NEODyS-2

Near Earth Objects - Dynamic Site
NEODyS ∴ Observatories ∴ Site 691 ∴ Obs & residuals
Contact »
691  ▹ 
OBSERVATIONS AND RESIDUALS

691-Steward Observatory, Kitt Peak-Spacewatch

Detections | Residuals | Detections & Residuals

[1-200] [201-400] [401-600] [601-800] [801-1000] [1001-1200] [1201-1400] [1401-1600] [1601-1800] [1801-2000] [2001-2200] [2201-2400] [2401-2600] [2601-2800] [2801-3000] [3001-3200] [3201-3400] [3401-3600] [3601-3800] [3801-4000] [4001-4200] [4201-4400] [4401-4600] [4601-4800] [4801-5000] [5001-5200] [5201-5400] [5401-5600] [5601-5800] [5801-6000] [6001-6200] [6201-6400] [6401-6600] [6601-6800] [6801-7000] [7001-7200] [7201-7400] [7401-7600] [7601-7800] [7801-8000] [8001-8200] [8201-8400] [8401-8600] [8601-8800] [8801-9000] [9001-9200] [9201-9400] [9401-9600] [9601-9800] [9801-10000] [10001-10200] [10201-10400] [10401-10600] [10601-10800] [10801-11000] [11001-11200] [11201-11400] [11401-11600] [11601-11800] [11801-12000] [12001-12200] [12201-12400] [12401-12600] [12601-12800] [12801-13000] [13001-13200] [13201-13400] [13401-13600] [13601-13800] [13801-14000] [14001-14200] [14201-14400] [14401-14600] [14601-14800] [14801-15000] [15001-15200] [15201-15400] [15401-15600] [15601-15800] [15801-16000] [16001-16200] [16201-16400] [16401-16600] [16601-16800] [16801-17000] [17001-17200] [17201-17400] [17401-17600] [17601-17800] [17801-18000] [18001-18200] [18201-18400] [18401-18600] [18601-18800] [18801-19000] [19001-19200] [19201-19400] [19401-19600] [19601-19800] [19801-20000] [20001-20200] [20201-20400] [20401-20600] [20601-20800] [20801-21000] [21001-21200] [21201-21400] [21401-21600] [21601-21800] [21801-22000] [22001-22200] [22201-22400] [22401-22600] [22601-22800] [22801-23000] [23001-23200] [23201-23400] [23401-23600] [23601-23800] [23801-24000] [24001-24200] [24201-24400] [24401-24600] [24601-24800] [24801-25000] [25001-25200] [25201-25400] [25401-25600] [25601-25800] [25801-26000] [26001-26200] [26201-26400] [26401-26600] [26601-26800] [26801-27000] [27001-27200] [27201-27400] [27401-27600] [27601-27800] [27801-28000] [28001-28200] [28201-28400] [28401-28600] [28601-28800] [28801-29000] [29001-29200] [29201-29400] [29401-29600] [29601-29800] [29801-30000] [30001-30200] [30201-30400] [30401-30600] [30601-30800] [30801-31000] [31001-31200] [31201-31400] [31401-31600] [31601-31800] [31801-32000] [32001-32200] [32201-32400] [32401-32600] [32601-32800] [32801-33000] [33001-33200] [33201-33400] [33401-33600] [33601-33800] [33801-34000] [34001-34200] [34201-34400] [34401-34600] [34601-34800] [34801-35000] [35001-35200] [35201-35400] [35401-35600] [35601-35800] [35801-36000] [36001-36200] [36201-36400] [36401-36600] [36601-36800] [36801-37000] [37001-37200] [37201-37400] [37401-37600] [37601-37800] [37801-38000] [38001-38200] [38201-38400] [38401-38600] [38601-38800] [38801-39000] [39001-39200] [39201-39400] [39401-39600] [39601-39800] [39801-40000] [40001-40200] [40201-40400] [40401-40600] [40601-40800] [40801-41000] [41001-41200] [41201-41400] [41401-41600] [41601-41800] [41801-42000] [42001-42200] [42201-42400] [42401-42600] [42601-42800] [42801-43000] [43001-43200] [43201-43400] [43401-43600] [43601-43800] [43801-44000] [44001-44200] [44201-44400] [44401-44600] [44601-44800] [44801-45000] [45001-45200] [45201-45400] [45401-45600] [45601-45800] [45801-46000] [46001-46200] [46201-46400] [46401-46600] [46601-46800] [46801-47000] [47001-47200] [47201-47400] [47401-47600] [47601-47800] [47801-48000] [48001-48200] [48201-48400] [48401-48600] [48601-48800] [48801-49000] [49001-49200] [49201-49400] [49401-49600] [49601-49800] [49801-50000] [50001-50200] [50201-50400] [50401-50600] [50601-50741]

Designation T Tech N Date Right Ascension Declination Apparent Magnitude Star Catalog Site code χ Used A Used M
yr-mo-day precision hr:min:sec precision rms F bias residual deg min sec precision rms F bias residual mag/col rms residual
2020TC7 O C K 2020-11-20.21375 1.000E-05 01:40:51.440 1.500E-01 0.500 F -0.203 -0.609 -26° 15' 11.70" 1.000E-01 0.500 F 0.310 1.534 20.4 R 0.70 -0.31 o 691 3.24 No Yes
2007TE66 O C H 2020-11-20.21953 1.000E-05 01:27:03.220 1.500E-01 0.500 F -0.334 0.502 -16° 10' 08.30" 1.000E-01 0.500 F 0.171 -0.047 o 691 1.02 Yes No
2020TC7 O C K 2020-11-20.22131 1.000E-05 01:40:49.960 1.500E-01 0.500 F -0.203 0.334 -26° 15' 24.10" 1.000E-01 0.500 F 0.310 -0.002 21.1 R 0.70 0.39 o 691 0.68 Yes Yes
2020WE1 O C K 2020-11-20.22675 1.000E-05 02:18:21.460 1.500E-01 0.500 F -0.353 -0.593 -06° 52' 36.30" 1.000E-01 0.500 F 0.056 0.230 20.7 R 0.70 0.54 o 691 1.28 Yes Yes
2020WE1 O C K 2020-11-20.23792 1.000E-05 02:18:15.560 1.500E-01 0.500 F -0.353 -0.152 -06° 53' 14.30" 1.000E-01 0.500 F 0.056 0.475 20.8 R 0.70 0.64 o 691 1.01 Yes Yes
2020WE1 O C K 2020-11-20.24908 1.000E-05 02:18:09.660 1.500E-01 0.500 F -0.353 0.303 -06° 53' 52.50" 1.000E-01 0.500 F 0.056 0.496 20.8 R 0.70 0.64 o 691 1.18 Yes Yes
2020UL1 O C H 2020-11-20.26539 1.000E-05 02:19:43.400 1.500E-01 0.500 F -0.302 -0.643 -17° 59' 03.30" 1.000E-01 0.500 F 0.148 -0.391 20.0 R 0.70 -0.10 o 691 1.53 Yes Yes
2020UL1 O C H 2020-11-20.27269 1.000E-05 02:19:41.970 1.500E-01 0.500 F -0.302 0.072 -17° 59' 23.40" 1.000E-01 0.500 F 0.148 -0.054 20.0 R 0.70 -0.10 o 691 0.18 Yes Yes
2020UL1 O C H 2020-11-20.28004 1.000E-05 02:19:40.470 1.500E-01 0.500 F -0.302 -0.070 -17° 59' 43.80" 1.000E-01 0.500 F 0.148 0.111 19.9 R 0.70 -0.20 o 691 0.27 Yes Yes
2020SF3 O C H 2020-11-20.29137 1.000E-05 03:14:29.770 1.500E-01 0.500 F -0.315 0.069 +17° 53' 35.50" 1.000E-01 0.500 F 0.277 -0.174 20.3 R 0.70 -0.07 o 691 0.38 Yes Yes
2020SF3 O C H 2020-11-20.30146 1.000E-05 03:14:29.790 1.500E-01 0.500 F -0.315 -0.063 +17° 53' 42.00" 1.000E-01 0.500 F 0.277 -0.138 20.6 R 0.70 0.23 o 691 0.30 Yes Yes
2020SF3 O C H 2020-11-20.31144 1.000E-05 03:14:29.830 1.500E-01 0.500 F -0.315 0.084 +17° 53' 48.50" 1.000E-01 0.500 F 0.277 -0.007 20.3 R 0.70 -0.08 o 691 0.17 Yes Yes
2007US12 O C K 2020-11-20.32036 1.000E-05 04:23:38.580 1.500E-01 0.500 F -0.133 0.116 +04° 50' 45.70" 1.000E-01 0.500 F 0.343 -0.064 21.5 R 0.70 0.72 o 691 0.27 Yes Yes
2007US12 O C K 2020-11-20.32966 1.000E-05 04:23:35.970 1.500E-01 0.500 F -0.133 0.144 +04° 50' 33.60" 1.000E-01 0.500 F 0.343 0.166 21.0 R 0.70 0.22 o 691 0.45 Yes Yes
2007US12 O C K 2020-11-20.33895 1.000E-05 04:23:33.360 1.500E-01 0.500 F -0.133 0.126 +04° 50' 21.20" 1.000E-01 0.500 F 0.343 0.086 21.1 R 0.70 0.32 o 691 0.31 Yes Yes
2020VK6 O C H 2020-11-20.34578 1.000E-05 04:50:10.740 1.500E-01 0.500 F -0.131 0.168 +06° 55' 48.30" 1.000E-01 0.500 F 0.221 -0.369 19.7 R 0.70 -0.05 o 691 0.82 Yes Yes
2020RV5 O C H 2020-11-20.34731 1.000E-05 04:55:58.160 1.500E-01 0.500 F -0.011 -0.294 +08° 39' 03.90" 1.000E-01 0.500 F 0.082 0.146 20.9 R 0.70 0.15 o 691 0.67 Yes Yes
2020RV5 O C H 2020-11-20.35283 1.000E-05 04:55:58.620 1.500E-01 0.500 F -0.011 -0.170 +08° 39' 06.70" 1.000E-01 0.500 F 0.082 0.244 20.7 R 0.70 -0.05 o 691 0.60 Yes Yes
2020VK6 O C H 2020-11-20.35683 1.000E-05 04:50:23.860 1.500E-01 0.500 F -0.131 -0.677 +06° 55' 48.20" 1.000E-01 0.500 F 0.221 0.149 19.6 R 0.70 -0.14 o 691 1.40 Yes Yes
2020RV5 O C H 2020-11-20.35835 1.000E-05 04:55:59.080 1.500E-01 0.500 F -0.011 -0.044 +08° 39' 09.20" 1.000E-01 0.500 F 0.082 0.051 20.8 R 0.70 0.05 o 691 0.14 Yes Yes
2011WL2 O C H 2020-11-20.38730 1.000E-05 07:06:01.880 1.500E-01 0.500 F -0.155 0.299 -09° 22' 34.00" 1.000E-01 0.500 F 0.063 0.122 o 691 0.65 Yes No
2020SE4 O C H 2020-11-20.38890 1.000E-05 06:28:07.560 1.500E-01 0.500 F -0.045 -0.210 +17° 29' 42.90" 1.000E-01 0.500 F 0.166 0.016 20.3 R 0.70 1.10 o 691 0.43 Yes Yes
2011WL2 O C H 2020-11-20.39287 1.000E-05 07:06:01.080 1.500E-01 0.500 F -0.155 -0.049 -09° 22' 46.00" 1.000E-01 0.500 F 0.063 -0.185 20.8 R 0.70 0.73 o 691 0.38 Yes Yes
2020SE4 O C H 2020-11-20.39447 1.000E-05 06:28:07.020 1.500E-01 0.500 F -0.045 0.047 +17° 30' 04.70" 1.000E-01 0.500 F 0.166 0.002 20.4 R 0.70 1.20 o 691 0.10 Yes Yes
2011WL2 O C H 2020-11-20.39843 1.000E-05 07:06:00.310 1.500E-01 0.500 F -0.155 0.036 -09° 22' 57.70" 1.000E-01 0.500 F 0.063 -0.218 20.5 R 0.70 0.43 o 691 0.44 Yes Yes
2020SE4 O C H 2020-11-20.40001 1.000E-05 06:28:06.490 1.500E-01 0.500 F -0.045 0.410 +17° 30' 26.50" 1.000E-01 0.500 F 0.166 0.117 20.1 R 0.70 0.90 o 691 0.87 Yes Yes
2015LK21 O C H 2020-11-20.41646 1.000E-05 08:21:37.620 1.500E-01 0.500 F -0.021 -0.015 -17° 30' 00.80" 1.000E-01 0.500 F -0.162 0.103 o 691 0.21 Yes No
2015LK21 O C H 2020-11-20.42320 1.000E-05 08:21:37.620 1.500E-01 0.500 F -0.021 -0.056 -17° 30' 04.10" 1.000E-01 0.500 F -0.162 -0.043 o 691 0.14 Yes No
2016BZ14 O C K 2020-11-20.45538 1.000E-05 10:55:10.040 1.500E-01 0.500 F 0.373 0.225 -09° 16' 10.80" 1.000E-01 0.500 F 0.043 0.419 20.5 R 0.70 0.08 o 691 0.97 Yes Yes
2016BZ14 O C K 2020-11-20.46252 1.000E-05 10:55:12.020 1.500E-01 0.500 F 0.373 -0.559 -09° 16' 11.40" 1.000E-01 0.500 F 0.043 0.080 20.7 R 0.70 0.28 o 691 1.16 Yes Yes
2016BZ14 O C K 2020-11-20.46964 1.000E-05 10:55:14.120 1.500E-01 0.500 F 0.373 0.526 -09° 16' 11.40" 1.000E-01 0.500 F 0.043 0.338 20.9 R 0.70 0.48 o 691 1.29 Yes Yes
2008CG119 O C H 2020-11-20.49462 1.000E-05 12:46:18.340 1.500E-01 0.500 F 0.188 0.203 +19° 56' 25.60" 1.000E-01 0.500 F 0.260 0.633 19.8 R 0.70 -0.24 o 691 1.46 Yes Yes
2008CG119 O C H 2020-11-20.50145 1.000E-05 12:46:18.450 1.500E-01 0.500 F 0.188 0.107 +19° 55' 55.60" 1.000E-01 0.500 F 0.260 0.262 19.7 R 0.70 -0.34 o 691 0.62 Yes Yes
2008CG119 O C H 2020-11-20.50826 1.000E-05 12:46:18.530 1.500E-01 0.500 F 0.188 -0.390 +19° 55' 25.60" 1.000E-01 0.500 F 0.260 -0.190 20.1 R 0.70 0.06 o 691 0.92 Yes Yes
2020RQ11 O C K 2020-11-21.14673 1.000E-05 23:45:16.570 1.500E-01 0.500 F -0.096 0.352 +02° 25' 11.20" 1.000E-01 0.500 F 0.344 0.289 20.4 R 0.70 -0.12 o 691 0.92 Yes Yes
2009KK8 O C K 2020-11-21.15433 1.000E-05 23:31:19.440 1.500E-01 0.500 F -0.161 0.023 -08° 12' 27.70" 1.000E-01 0.500 F 0.277 0.379 20.4 R 0.70 0.54 o 691 0.76 Yes Yes
2020RQ11 O C K 2020-11-21.15723 1.000E-05 23:45:16.360 1.500E-01 0.500 F -0.096 0.139 +02° 25' 51.60" 1.000E-01 0.500 F 0.344 0.031 20.8 R 0.70 0.28 o 691 0.29 Yes Yes
2009KK8 O C K 2020-11-21.16483 1.000E-05 23:31:21.490 1.500E-01 0.500 F -0.161 -0.271 -08° 12' 12.00" 1.000E-01 0.500 F 0.277 0.120 20.5 R 0.70 0.64 o 691 0.60 Yes Yes
2020RQ11 O C K 2020-11-21.16773 1.000E-05 23:45:16.150 1.500E-01 0.500 F -0.096 -0.107 +02° 26' 32.00" 1.000E-01 0.500 F 0.344 -0.232 20.7 R 0.70 0.18 o 691 0.52 Yes Yes
2009KK8 O C K 2020-11-21.17533 1.000E-05 23:31:23.600 1.500E-01 0.500 F -0.161 0.318 -08° 11' 56.20" 1.000E-01 0.500 F 0.277 -0.043 20.3 R 0.70 0.44 o 691 0.64 Yes Yes
2013TV144 O C K 2020-11-21.17869 1.000E-05 00:24:27.320 1.500E-01 0.500 F -0.161 -0.163 +02° 02' 16.70" 1.000E-01 0.500 F 0.288 0.073 21.3 R 0.70 0.00 o 691 0.36 Yes Yes
2015VX1 O C K 2020-11-21.18861 1.000E-05 00:29:32.520 1.500E-01 0.500 F -0.227 -0.118 -08° 25' 07.30" 1.000E-01 0.500 F 0.310 -0.139 21.9 R 0.70 0.84 o 691 0.37 Yes Yes
2013TV144 O C K 2020-11-21.19693 1.000E-05 00:24:28.910 1.500E-01 0.500 F -0.161 -0.507 +02° 02' 33.80" 1.000E-01 0.500 F 0.288 0.463 21.0 R 0.70 -0.30 o 691 1.38 Yes Yes
2015VX1 O C K 2020-11-21.20684 1.000E-05 00:29:32.260 1.500E-01 0.500 F -0.227 0.256 -08° 24' 06.20" 1.000E-01 0.500 F 0.310 0.430 22.0 R 0.70 0.94 o 691 1.03 Yes Yes
2013TV144 O C K 2020-11-21.21516 1.000E-05 00:24:30.560 1.500E-01 0.500 F -0.161 0.015 +02° 02' 50.00" 1.000E-01 0.500 F 0.288 -0.029 21.8 R 0.70 0.50 o 691 0.07 Yes Yes
2015VX1 O C K 2020-11-21.22506 1.000E-05 00:29:31.990 1.500E-01 0.500 F -0.227 0.417 -08° 23' 05.80" 1.000E-01 0.500 F 0.310 0.331 21.2 R 0.70 0.14 o 691 1.09 Yes Yes
2020TC7 O C K 2020-11-21.23360 1.000E-05 01:37:27.160 1.500E-01 0.500 F -0.278 0.114 -26° 39' 14.70" 1.000E-01 0.500 F 0.469 0.169 20.4 R 0.70 -0.30 o 691 0.41 Yes Yes
2020OC8 O C H 2020-11-21.23653 1.000E-05 01:40:49.900 1.500E-01 0.500 F -0.210 -0.119 -14° 27' 32.40" 1.000E-01 0.500 F 0.327 -0.078 18.2 R 0.70 0.13 o 691 0.29 Yes Yes
2020TC7 O C K 2020-11-21.24015 1.000E-05 01:37:25.810 1.500E-01 0.500 F -0.278 0.096 -26° 39' 23.90" 1.000E-01 0.500 F 0.469 0.036 21.2 R 0.70 0.50 o 691 0.21 Yes Yes
2020OC8 O C H 2020-11-21.24308 1.000E-05 01:40:52.210 1.500E-01 0.500 F -0.210 0.210 -14° 27' 23.90" 1.000E-01 0.500 F 0.327 0.001 18.2 R 0.70 0.13 o 691 0.42 Yes Yes
2020TC7 O C K 2020-11-21.24670 1.000E-05 01:37:24.530 1.500E-01 0.500 F -0.278 1.014 -26° 39' 32.10" 1.000E-01 0.500 F 0.469 0.891 20.5 R 0.70 -0.20 o 691 2.74 Yes Yes
2020OC8 O C H 2020-11-21.24963 1.000E-05 01:40:54.470 1.500E-01 0.500 F -0.210 -0.200 -14° 27' 15.50" 1.000E-01 0.500 F 0.327 -0.043 18.1 R 0.70 0.03 o 691 0.41 Yes Yes
2020VK1 O C K 2020-11-21.25355 1.000E-05 02:25:27.700 1.500E-01 0.500 F -0.216 -0.025 +04° 17' 05.90" 1.000E-01 0.500 F 0.246 -0.054 20.3 R 0.70 0.10 o 691 0.12 Yes Yes
2020UF7 O C H 2020-11-21.25624 1.000E-05 02:20:07.340 1.500E-01 0.500 F -0.309 -0.371 -11° 37' 20.90" 1.000E-01 0.500 F 0.271 -0.266 20.7 R 0.70 0.23 o 691 0.92 Yes Yes
2020VK1 O C K 2020-11-21.26039 1.000E-05 02:25:26.080 1.500E-01 0.500 F -0.216 0.112 +04° 17' 40.00" 1.000E-01 0.500 F 0.246 -0.294 20.2 R 0.70 0.00 o 691 0.64 Yes Yes
2020UF7 O C H 2020-11-21.26313 1.000E-05 02:20:06.840 1.500E-01 0.500 F -0.309 -0.406 -11° 37' 27.40" 1.000E-01 0.500 F 0.271 -0.055 20.2 R 0.70 -0.27 o 691 0.82 Yes Yes
2020VK1 O C K 2020-11-21.26728 1.000E-05 02:25:24.450 1.500E-01 0.500 F -0.216 0.272 +04° 18' 15.10" 1.000E-01 0.500 F 0.246 0.210 20.6 R 0.70 0.40 o 691 0.71 Yes Yes
2020UF7 O C H 2020-11-21.26995 1.000E-05 02:20:06.350 1.500E-01 0.500 F -0.309 -0.396 -11° 37' 34.00" 1.000E-01 0.500 F 0.271 -0.048 20.0 R 0.70 -0.47 o 691 0.80 Yes Yes
2020WS2 O C K 2020-11-21.27379 1.000E-05 03:28:32.410 1.500E-01 0.500 F -0.456 0.170 -11° 13' 43.50" 1.000E-01 0.500 F 0.184 0.070 20.4 R 0.70 0.05 o 691 0.37 Yes Yes
2000GJ147 O C 2020-11-21.27814 1.000E-05 03:08:49.370 1.500E-01 0.500 F -0.326 -0.224 +15° 52' 37.80" 1.000E-01 0.500 F 0.260 0.124 o 691 0.51 Yes No
2020UG7 O C 2020-11-21.27814 1.000E-05 03:07:35.920 1.500E-01 0.500 F -0.326 0.137 +16° 05' 01.50" 1.000E-01 0.500 F 0.260 -0.271 o 691 0.61 Yes No
2020WS2 O C K 2020-11-21.28260 1.000E-05 03:28:34.940 1.500E-01 0.500 F -0.456 -0.065 -11° 14' 04.30" 1.000E-01 0.500 F 0.184 -0.063 20.0 R 0.70 -0.35 o 691 0.18 Yes Yes
2000GJ147 O C 2020-11-21.28694 1.000E-05 03:08:46.710 1.500E-01 0.500 F -0.326 0.007 +15° 53' 14.20" 1.000E-01 0.500 F 0.260 -0.146 o 691 0.29 Yes No
2020UG7 O C 2020-11-21.28694 1.000E-05 03:07:34.760 1.500E-01 0.500 F -0.326 -0.103 +16° 05' 05.90" 1.000E-01 0.500 F 0.260 -0.136 o 691 0.34 Yes No
2020WS2 O C K 2020-11-21.29163 1.000E-05 03:28:37.550 1.500E-01 0.500 F -0.456 -0.101 -11° 14' 25.80" 1.000E-01 0.500 F 0.184 -0.415 21.0 R 0.70 0.65 o 691 0.86 Yes Yes
2000GJ147 O C 2020-11-21.29597 1.000E-05 03:08:43.960 1.500E-01 0.500 F -0.326 -0.070 +15° 53' 51.80" 1.000E-01 0.500 F 0.260 -0.134 o 691 0.30 Yes No
2020UG7 O C 2020-11-21.29597 1.000E-05 03:07:33.580 1.500E-01 0.500 F -0.326 -0.203 +16° 05' 10.10" 1.000E-01 0.500 F 0.260 -0.304 o 691 0.73 Yes No
2020TP3 O C H 2020-11-21.30139 1.000E-05 04:06:04.530 1.500E-01 0.500 F -0.301 -0.158 -11° 00' 14.70" 1.000E-01 0.500 F 0.180 -0.066 21.0 R 0.70 0.45 o 691 0.34 Yes Yes
2020UD O C H 2020-11-21.30369 1.000E-05 03:52:58.540 1.500E-01 0.500 F -0.245 0.136 +16° 17' 10.90" 1.000E-01 0.500 F 0.285 -0.077 20.7 R 0.70 0.53 o 691 0.31 Yes Yes
2020TP3 O C H 2020-11-21.30862 1.000E-05 04:06:04.210 1.500E-01 0.500 F -0.301 -0.246 -11° 00' 24.80" 1.000E-01 0.500 F 0.180 -0.168 21.0 R 0.70 0.45 o 691 0.60 Yes Yes
2020UD O C H 2020-11-21.31092 1.000E-05 03:52:59.130 1.500E-01 0.500 F -0.245 -0.279 +16° 17' 19.20" 1.000E-01 0.500 F 0.285 -0.072 20.9 R 0.70 0.73 o 691 0.58 Yes Yes
2020TP3 O C H 2020-11-21.31597 1.000E-05 04:06:03.890 1.500E-01 0.500 F -0.301 -0.257 -11° 00' 34.10" 1.000E-01 0.500 F 0.180 0.680 20.9 R 0.70 0.34 o 691 1.46 Yes Yes
2020UD O C H 2020-11-21.31825 1.000E-05 03:52:59.780 1.500E-01 0.500 F -0.245 0.045 +16° 17' 27.70" 1.000E-01 0.500 F 0.285 0.040 20.7 R 0.70 0.53 o 691 0.12 Yes Yes
2020WQ1 O C K 2020-11-21.32350 1.000E-05 05:23:18.640 1.500E-01 0.500 F -0.221 -0.031 +03° 07' 31.00" 1.000E-01 0.500 F 0.070 0.221 o 691 0.45 Yes No
2020WQ1 O C K 2020-11-21.33304 1.000E-05 05:23:19.960 1.500E-01 0.500 F -0.221 -0.270 +03° 07' 08.80" 1.000E-01 0.500 F 0.070 -0.252 o 691 0.75 Yes No
2020WQ1 O C K 2020-11-21.34259 1.000E-05 05:23:21.330 1.500E-01 0.500 F -0.221 0.232 +03° 06' 47.30" 1.000E-01 0.500 F 0.070 0.014 o 691 0.47 Yes No
2020OC7 O C K 2020-11-21.37351 1.000E-05 08:42:32.410 1.500E-01 0.500 F -0.054 0.485 -11° 52' 36.90" 1.000E-01 0.500 F 0.058 0.479 21.2 R 0.70 0.28 o 691 1.38 Yes Yes
2020OC7 O C K 2020-11-21.39257 1.000E-05 08:42:33.610 1.500E-01 0.500 F -0.054 -0.501 -11° 52' 34.60" 1.000E-01 0.500 F 0.058 0.241 20.9 R 0.70 -0.02 o 691 1.12 Yes Yes
2020VZ5 O C K 2020-11-21.40562 1.000E-05 09:16:51.710 1.500E-01 0.500 F 0.080 -0.378 +02° 54' 53.00" 1.000E-01 0.500 F 0.126 0.498 20.1 R 0.70 -0.27 o 691 1.26 Yes Yes
1996HW1 O C 2020-11-21.41004 1.000E-05 09:02:23.860 1.500E-01 0.500 F 0.227 -0.283 +05° 54' 46.80" 1.000E-01 0.500 F 0.208 -0.062 o 691 0.58 Yes No
1996HW1 O C 2020-11-21.41940 1.000E-05 09:02:24.050 1.500E-01 0.500 F 0.227 -0.169 +05° 54' 44.10" 1.000E-01 0.500 F 0.208 0.023 o 691 0.34 Yes No
2020VZ5 O C K 2020-11-21.42436 1.000E-05 09:16:49.510 1.500E-01 0.500 F 0.080 0.319 +02° 53' 29.00" 1.000E-01 0.500 F 0.126 0.219 20.3 R 0.70 -0.07 o 691 0.78 Yes Yes
1996HW1 O C 2020-11-21.42877 1.000E-05 09:02:24.210 1.500E-01 0.500 F 0.227 -0.494 +05° 54' 41.50" 1.000E-01 0.500 F 0.208 0.211 o 691 1.07 Yes No
2020MZ3 O C K 2020-11-21.43350 1.000E-05 09:54:57.000 1.500E-01 0.500 F 0.059 -0.155 +07° 03' 29.60" 1.000E-01 0.500 F 0.209 0.479 o 691 1.01 Yes No
2020MZ3 O C K 2020-11-21.44627 1.000E-05 09:54:57.650 1.500E-01 0.500 F 0.059 -0.145 +07° 03' 28.80" 1.000E-01 0.500 F 0.209 0.115 o 691 0.37 Yes No
2020MZ3 O C K 2020-11-21.45905 1.000E-05 09:54:58.300 1.500E-01 0.500 F 0.059 -0.094 +07° 03' 28.10" 1.000E-01 0.500 F 0.209 -0.144 o 691 0.35 Yes No
2016BZ14 O C K 2020-11-21.48259 1.000E-05 11:00:06.240 1.500E-01 0.500 F 0.244 0.328 -09° 16' 32.50" 1.000E-01 0.500 F -0.022 -0.288 o 691 0.88 Yes No
2016BZ14 O C K 2020-11-21.49171 1.000E-05 11:00:08.820 1.500E-01 0.500 F 0.244 -0.345 -09° 16' 32.40" 1.000E-01 0.500 F -0.022 -0.060 20.9 R 0.70 0.50 o 691 0.72 Yes Yes
2017WA15 O C K 2020-11-22.05674 1.000E-05 20:00:32.150 1.500E-01 0.500 F 0.009 0.390 -09° 25' 50.30" 1.000E-01 0.500 F 0.218 0.119 20.1 R 0.70 -0.43 o 691 0.82 Yes Yes
2017WA15 O C K 2020-11-22.06395 1.000E-05 20:00:34.440 1.500E-01 0.500 F 0.009 0.557 -09° 25' 35.30" 1.000E-01 0.500 F 0.218 0.351 19.8 R 0.70 -0.73 o 691 1.34 Yes Yes
2017WA15 O C K 2020-11-22.07117 1.000E-05 20:00:36.670 1.500E-01 0.500 F 0.009 -0.216 -09° 25' 21.30" 1.000E-01 0.500 F 0.218 -0.440 20.1 R 0.70 -0.43 o 691 1.01 Yes Yes
2020WG O C K 2020-11-22.08198 1.000E-05 23:16:19.720 1.500E-01 0.500 F -0.261 0.131 +15° 16' 43.50" 1.000E-01 0.500 F 0.254 -0.044 19.9 R 0.70 0.39 o 691 0.28 Yes Yes
2020WG O C K 2020-11-22.08507 1.000E-05 23:16:21.260 1.500E-01 0.500 F -0.261 0.440 +15° 17' 05.00" 1.000E-01 0.500 F 0.254 0.642 19.2 R 0.70 -0.31 o 691 1.57 Yes Yes
2020WG O C K 2020-11-22.08816 1.000E-05 23:16:22.750 1.500E-01 0.500 F -0.261 0.029 +15° 17' 24.80" 1.000E-01 0.500 F 0.254 -0.364 19.1 R 0.70 -0.41 o 691 0.74 Yes Yes
1998VD32 O C K 2020-11-22.09306 1.000E-05 23:26:33.030 1.500E-01 0.500 F -0.292 0.377 +13° 54' 55.50" 1.000E-01 0.500 F 0.179 0.162 19.4 R 0.70 -0.06 o 691 0.84 Yes Yes
1998VD32 O C K 2020-11-22.09626 1.000E-05 23:26:31.410 1.500E-01 0.500 F -0.292 0.501 +13° 54' 49.50" 1.000E-01 0.500 F 0.179 0.321 19.3 R 0.70 -0.16 o 691 1.21 Yes Yes
1998VD32 O C K 2020-11-22.09945 1.000E-05 23:26:29.770 1.500E-01 0.500 F -0.292 0.264 +13° 54' 43.50" 1.000E-01 0.500 F 0.179 0.468 19.1 R 0.70 -0.36 o 691 1.09 Yes Yes
2020WE1 O C K 2020-11-22.10628 1.000E-05 02:00:43.470 1.500E-01 0.500 F -0.251 -0.174 -08° 46' 45.70" 1.000E-01 0.500 F 0.237 -0.201 20.3 R 0.70 0.23 o 691 0.54 Yes Yes
2020WE1 O C K 2020-11-22.11267 1.000E-05 02:00:39.500 1.500E-01 0.500 F -0.251 0.312 -08° 47' 10.60" 1.000E-01 0.500 F 0.237 -0.202 20.2 R 0.70 0.13 o 691 0.75 Yes Yes
2020WU2 O C K 2020-11-22.13837 1.000E-05 02:07:25.120 1.500E-01 0.500 F -0.546 -0.166 -16° 36' 42.40" 1.000E-01 0.500 F 0.186 -0.346 21.2 R 0.70 0.19 o 691 0.78 Yes Yes
2020WU2 O C K 2020-11-22.14837 1.000E-05 02:07:27.270 1.500E-01 0.500 F -0.546 0.077 -16° 36' 11.10" 1.000E-01 0.500 F 0.186 -0.051 21.2 R 0.70 0.19 o 691 0.19 Yes Yes
2020WU2 O C K 2020-11-22.15844 1.000E-05 02:07:29.430 1.500E-01 0.500 F -0.546 0.317 -16° 35' 39.40" 1.000E-01 0.500 F 0.186 0.388 20.6 R 0.70 -0.41 o 691 1.02 Yes Yes
2020VJ3 O C K 2020-11-22.18631 1.000E-05 03:42:28.590 1.500E-01 0.500 F -0.017 -0.330 +28° 01' 14.40" 1.000E-01 0.500 F 0.172 -0.340 20.7 R 0.70 -0.43 o 691 0.97 Yes Yes
2020VJ3 O C K 2020-11-22.20075 1.000E-05 03:42:24.940 1.500E-01 0.500 F -0.021 -0.136 +28° 01' 19.70" 1.000E-01 0.500 F 0.161 0.014 21.7 R 0.70 0.57 o 691 0.28 Yes Yes
2020WS2 O C K 2020-11-22.21646 1.000E-05 03:34:03.170 1.500E-01 0.500 F -0.429 -0.003 -11° 52' 11.90" 1.000E-01 0.500 F 0.004 0.048 20.2 R 0.70 -0.02 o 691 0.10 Yes Yes
2020WS2 O C K 2020-11-22.22285 1.000E-05 03:34:05.360 1.500E-01 0.500 F -0.429 0.350 -11° 52' 29.00" 1.000E-01 0.500 F 0.004 -0.317 20.1 R 0.70 -0.12 o 691 0.96 Yes Yes
2020WQ1 O C K 2020-11-22.27549 1.000E-05 05:25:47.190 1.500E-01 0.500 F -0.162 0.000 +02° 30' 28.10" 1.000E-01 0.500 F 0.086 -0.001 20.4 R 0.70 -0.54 o 691 0.00 Yes Yes
2020WQ1 O C K 2020-11-22.28992 1.000E-05 05:25:49.320 1.500E-01 0.500 F -0.162 -0.044 +02° 29' 53.30" 1.000E-01 0.500 F 0.086 -0.337 21.1 R 0.70 0.16 o 691 0.69 Yes Yes
2020RR2 O C K 2020-11-22.30669 1.000E-05 05:24:56.620 1.500E-01 0.500 F -0.052 -0.192 -18° 34' 21.20" 1.000E-01 0.500 F -0.188 0.322 20.7 R 0.70 -1.07 o 691 0.76 Yes Yes
2020RR2 O C K 2020-11-22.32096 1.000E-05 05:24:56.560 1.500E-01 0.500 F -0.052 -0.161 -18° 34' 04.40" 1.000E-01 0.500 F -0.188 -0.010 20.5 R 0.70 -1.27 o 691 0.33 Yes Yes
2020RR2 O C K 2020-11-22.33525 1.000E-05 05:24:56.490 1.500E-01 0.500 F -0.052 -0.124 -18° 33' 46.90" 1.000E-01 0.500 F -0.188 0.170 21.5 R 0.70 -0.27 o 691 0.42 Yes Yes
2010JK33 O C K 2020-11-22.38990 1.000E-05 04:19:33.720 1.500E-01 0.500 F -0.016 -0.128 +27° 09' 15.10" 1.000E-01 0.500 F 0.303 0.138 21.3 R 0.70 -0.07 o 691 0.38 Yes Yes
2013YS2 O C K 2020-11-22.39892 1.000E-05 04:20:50.420 1.500E-01 0.500 F -0.122 -0.028 +29° 15' 12.80" 1.000E-01 0.500 F 0.143 -0.176 21.5 R 0.70 1.32 o 691 0.36 Yes Yes
2010JK33 O C K 2020-11-22.40341 1.000E-05 04:19:31.940 1.500E-01 0.500 F -0.016 0.436 +27° 09' 12.30" 1.000E-01 0.500 F 0.303 0.246 22.0 R 0.70 0.63 o 691 1.02 Yes Yes
2013YS2 O C K 2020-11-22.41244 1.000E-05 04:20:50.790 1.500E-01 0.500 F -0.122 -0.173 +29° 15' 06.30" 1.000E-01 0.500 F 0.143 0.023 21.1 R 0.70 0.92 o 691 0.35 Yes Yes
2010JK33 O C K 2020-11-22.41693 1.000E-05 04:19:30.090 1.500E-01 0.500 F -0.016 0.039 +27° 09' 08.90" 1.000E-01 0.500 F 0.303 -0.211 22.3 R 0.70 0.93 o 691 0.43 Yes Yes
2013YS2 O C K 2020-11-22.42595 1.000E-05 04:20:51.210 1.500E-01 0.500 F -0.122 0.146 +29° 14' 59.30" 1.000E-01 0.500 F 0.143 -0.131 20.8 R 0.70 0.63 o 691 0.40 Yes Yes
2020VZ5 O C K 2020-11-22.53713 1.000E-05 09:14:41.620 1.500E-01 0.500 F 0.096 0.135 +01° 29' 54.60" 1.000E-01 0.500 F 0.137 0.142 o 691 0.40 Yes No
2020VZ5 O C K 2020-11-22.54138 1.000E-05 09:14:41.070 1.500E-01 0.500 F 0.096 0.033 +01° 29' 35.10" 1.000E-01 0.500 F 0.137 -0.066 o 691 0.15 Yes No
2020HJ4 O C K 2020-11-23.06797 1.000E-05 21:13:04.620 1.500E-01 0.500 F -0.047 -0.493 -18° 15' 31.10" 1.000E-01 0.500 F 0.226 0.143 o 691 1.08 Yes No
2020HJ4 O C K 2020-11-23.07435 1.000E-05 21:13:07.260 1.500E-01 0.500 F -0.047 0.211 -18° 15' 19.60" 1.000E-01 0.500 F 0.226 0.107 o 691 0.51 Yes No
2020WE1 O C K 2020-11-23.09055 1.000E-05 01:50:10.300 1.500E-01 0.500 F -0.413 -0.090 -09° 52' 14.70" 1.000E-01 0.500 F 0.177 0.298 o 691 0.63 Yes No
2020WE1 O C K 2020-11-23.09471 1.000E-05 01:50:07.440 1.500E-01 0.500 F -0.413 -0.209 -09° 52' 32.00" 1.000E-01 0.500 F 0.177 0.226 o 691 0.63 Yes No
2020WE1 O C K 2020-11-23.09887 1.000E-05 01:50:04.620 1.500E-01 0.500 F -0.413 0.297 -09° 52' 49.40" 1.000E-01 0.500 F 0.177 0.055 o 691 0.61 Yes No
2006UL185 O C K 2020-11-23.11492 1.000E-05 02:35:48.070 1.500E-01 0.500 F -0.241 -0.168 +23° 35' 34.40" 1.000E-01 0.500 F 0.249 -0.251 19.8 R 0.70 0.25 o 691 0.61 Yes Yes
2016JU33 O C 2020-11-23.11762 1.000E-05 03:19:40.940 1.500E-01 0.500 F -0.155 -0.958 +29° 13' 10.60" 1.000E-01 0.500 F 0.420 -0.146 20.8 V 0.70 0.39 o 691 1.95 Yes Yes
2006UL185 O C K 2020-11-23.12464 1.000E-05 02:35:43.980 1.500E-01 0.500 F -0.241 -0.223 +23° 35' 42.60" 1.000E-01 0.500 F 0.249 0.337 19.6 R 0.70 0.05 o 691 0.82 Yes Yes
2016JU33 O C 2020-11-23.12911 1.000E-05 03:19:39.250 1.500E-01 0.500 F -0.155 -0.699 +29° 13' 07.40" 1.000E-01 0.500 F 0.420 0.330 20.8 V 0.70 0.39 o 691 1.55 Yes Yes
2006UL185 O C K 2020-11-23.13435 1.000E-05 02:35:39.920 1.500E-01 0.500 F -0.241 0.137 +23° 35' 50.00" 1.000E-01 0.500 F 0.249 0.170 19.7 R 0.70 0.14 o 691 0.44 Yes Yes
2016JU33 O C 2020-11-23.13883 1.000E-05 03:19:37.810 1.500E-01 0.500 F -0.155 -0.554 +29° 13' 04.00" 1.000E-01 0.500 F 0.420 0.064 20.7 V 0.70 0.29 o 691 1.12 Yes Yes
2020VJ3 O C K 2020-11-23.15510 1.000E-05 03:38:52.450 1.500E-01 0.500 F -0.033 -0.137 +28° 05' 00.20" 1.000E-01 0.500 F 0.160 0.162 o 691 0.44 Yes No
2020VJ3 O C K 2020-11-23.18071 1.000E-05 03:38:46.730 1.500E-01 0.500 F -0.033 -0.127 +28° 05' 06.60" 1.000E-01 0.500 F 0.160 -0.675 o 691 1.41 Yes No
2019XS O C H 2020-11-23.19259 1.000E-05 03:44:07.440 1.500E-01 0.500 F -0.018 -0.249 +29° 30' 32.20" 1.000E-01 0.500 F 0.183 0.212 19.8 R 0.70 0.71 o 691 0.66 Yes Yes
2020VJ3 O C K 2020-11-23.20653 1.000E-05 03:38:40.910 1.500E-01 0.500 F -0.033 -0.407 +28° 05' 13.70" 1.000E-01 0.500 F 0.160 -0.439 o 691 1.22 Yes No
2019XS O C H 2020-11-23.21840 1.000E-05 03:43:56.560 1.500E-01 0.500 F -0.018 0.119 +29° 30' 20.30" 1.000E-01 0.500 F 0.183 0.226 19.3 R 0.70 0.21 o 691 0.52 Yes Yes
2020WS2 O C K 2020-11-23.22810 1.000E-05 03:40:52.480 1.500E-01 0.500 F -0.382 -0.520 -12° 37' 54.40" 1.000E-01 0.500 F 0.021 0.892 19.6 R 0.70 -0.47 o 691 2.12 Yes Yes
2020WS2 O C K 2020-11-23.23476 1.000E-05 03:40:55.180 1.500E-01 0.500 F -0.382 0.055 -12° 38' 14.60" 1.000E-01 0.500 F 0.021 0.090 o 691 0.21 Yes No
2007US12 O C K 2020-11-23.26549 1.000E-05 04:10:33.160 1.500E-01 0.500 F -0.236 -0.141 +03° 48' 38.70" 1.000E-01 0.500 F 0.125 0.258 20.9 R 0.70 0.09 o 691 0.59 Yes Yes
2007US12 O C K 2020-11-23.27270 1.000E-05 04:10:31.240 1.500E-01 0.500 F -0.236 0.227 +03° 48' 29.90" 1.000E-01 0.500 F 0.125 0.102 21.3 R 0.70 0.48 o 691 0.51 Yes Yes
2007US12 O C K 2020-11-23.27991 1.000E-05 04:10:29.330 1.500E-01 0.500 F -0.236 0.751 +03° 48' 21.70" 1.000E-01 0.500 F 0.125 0.547 20.7 R 0.70 -0.12 o 691 1.89 Yes Yes
2010JK33 O C K 2020-11-23.28928 1.000E-05 04:17:37.990 1.500E-01 0.500 F -0.115 -0.127 +27° 06' 10.90" 1.000E-01 0.500 F 0.244 0.216 o 691 0.50 Yes No
2010JK33 O C K 2020-11-23.30956 1.000E-05 04:17:35.280 1.500E-01 0.500 F -0.115 -0.252 +27° 06' 06.60" 1.000E-01 0.500 F 0.244 0.120 o 691 0.57 Yes No
2013YS2 O C H 2020-11-23.32018 1.000E-05 04:21:37.190 1.500E-01 0.500 F -0.072 -0.428 +29° 08' 32.20" 1.000E-01 0.500 F 0.170 0.005 20.5 R 0.70 0.40 o 691 0.86 Yes Yes
2013YS2 O C H 2020-11-23.32242 1.000E-05 04:21:37.300 1.500E-01 0.500 F -0.072 0.262 +29° 08' 30.90" 1.000E-01 0.500 F 0.170 -0.259 20.9 R 0.70 0.80 o 691 0.74 Yes Yes
2013YS2 O C H 2020-11-23.32467 1.000E-05 04:21:37.310 1.500E-01 0.500 F -0.072 -0.363 +29° 08' 29.70" 1.000E-01 0.500 F 0.170 -0.414 20.8 R 0.70 0.70 o 691 1.11 Yes Yes
2009KK O C H 2020-11-23.32673 1.000E-05 04:20:54.050 1.500E-01 0.500 F -0.148 0.122 +14° 49' 50.40" 1.000E-01 0.500 F 0.237 -0.152 19.9 R 0.70 0.65 o 691 0.39 Yes Yes
2009KK O C H 2020-11-23.32808 1.000E-05 04:20:53.820 1.500E-01 0.500 F -0.148 0.939 +14° 49' 53.20" 1.000E-01 0.500 F 0.237 -0.149 19.6 R 0.70 0.35 o 691 1.91 Yes Yes
2009KK O C H 2020-11-23.32942 1.000E-05 04:20:53.470 1.500E-01 0.500 F -0.148 -0.015 +14° 49' 56.30" 1.000E-01 0.500 F 0.237 0.176 19.2 R 0.70 -0.05 o 691 0.35 Yes Yes
2014MD55 O C K 2020-11-23.33263 1.000E-05 04:14:54.800 1.500E-01 0.500 F -0.178 1.872 +09° 37' 25.00" 1.000E-01 0.500 F 0.255 1.284 o 691 4.36 No No
2014MD55 O C K 2020-11-23.36138 1.000E-05 04:14:52.650 1.500E-01 0.500 F -0.178 -0.010 +09° 37' 14.20" 1.000E-01 0.500 F 0.255 -0.733 o 691 1.51 Yes No
2020UO O C K 2020-11-23.37420 1.000E-05 04:20:17.100 1.500E-01 0.500 F -0.125 0.046 +02° 26' 40.60" 1.000E-01 0.500 F 0.344 -0.108 22.0 R 0.70 0.21 o 691 0.27 Yes Yes
2014MD55 O C K 2020-11-23.39012 1.000E-05 04:14:50.640 1.500E-01 0.500 F -0.178 0.134 +09° 37' 06.00" 1.000E-01 0.500 F 0.255 -0.134 o 691 0.41 Yes No
2020UO O C K 2020-11-23.40295 1.000E-05 04:20:19.350 1.500E-01 0.500 F -0.125 0.077 +02° 26' 53.80" 1.000E-01 0.500 F 0.344 -0.307 21.7 R 0.70 -0.09 o 691 0.71 Yes Yes
2010BH2 O C K 2020-11-23.50972 1.000E-05 11:07:54.070 1.500E-01 0.500 F 0.140 1.023 +10° 59' 49.30" 1.000E-01 0.500 F 0.172 0.734 o 691 2.78 Yes No
2010BH2 O C K 2020-11-23.52082 1.000E-05 11:07:56.530 1.500E-01 0.500 F 0.140 -0.392 +10° 59' 48.80" 1.000E-01 0.500 F 0.172 -0.288 o 691 1.07 Yes No
2010BH2 O C K 2020-11-23.53193 1.000E-05 11:07:59.110 1.500E-01 0.500 F 0.140 -0.060 +10° 59' 49.80" 1.000E-01 0.500 F 0.172 0.194 o 691 0.41 Yes No
2020WE1 O C K 2020-11-24.12684 1.000E-05 01:37:57.040 1.500E-01 0.500 F -0.214 -0.954 -11° 05' 24.60" 1.000E-01 0.500 F 0.256 -0.274 20.0 R 0.70 -0.01 o 691 2.03 Yes Yes
2020WE1 O C K 2020-11-24.14199 1.000E-05 01:37:45.540 1.500E-01 0.500 F -0.214 -1.197 -11° 06' 31.00" 1.000E-01 0.500 F 0.256 -0.369 20.7 R 0.70 0.69 o 691 2.56 Yes Yes
2020US2 O C K 2020-11-24.15780 1.000E-05 01:07:17.980 1.500E-01 0.500 F -0.342 0.236 +16° 05' 45.00" 1.000E-01 0.500 F 0.414 -0.137 21.3 R 0.70 0.26 o 691 0.56 Yes Yes
2020UF7 O C K 2020-11-24.17149 1.000E-05 02:18:48.860 1.500E-01 0.500 F -0.301 -0.768 -12° 20' 40.70" 1.000E-01 0.500 F 0.191 -0.722 20.5 R 0.70 -0.03 o 691 2.12 Yes Yes
2020US2 O C K 2020-11-24.17920 1.000E-05 01:07:23.830 1.500E-01 0.500 F -0.342 -0.170 +16° 06' 19.20" 1.000E-01 0.500 F 0.414 -0.168 o 691 0.50 Yes No
2020UF7 O C K 2020-11-24.19327 1.000E-05 02:18:47.590 1.500E-01 0.500 F -0.301 0.060 -12° 20' 57.30" 1.000E-01 0.500 F 0.191 0.809 20.0 R 0.70 -0.53 o 691 1.63 Yes Yes
2020US2 O C K 2020-11-24.20107 1.000E-05 01:07:29.820 1.500E-01 0.500 F -0.342 -0.365 +16° 06' 53.10" 1.000E-01 0.500 F 0.414 -0.969 21.2 R 0.70 0.16 o 691 2.14 Yes Yes
2020UF7 O C K 2020-11-24.23425 1.000E-05 02:18:45.030 1.500E-01 0.500 F -0.301 -0.036 -12° 21' 31.20" 1.000E-01 0.500 F 0.191 -0.048 20.4 R 0.70 -0.13 o 691 0.12 Yes Yes
2020WQ1 O C K 2020-11-24.25174 1.000E-05 05:31:16.960 1.500E-01 0.500 F -0.136 0.395 +01° 07' 33.30" 1.000E-01 0.500 F 0.124 0.324 21.1 R 0.70 0.30 o 691 1.03 Yes Yes
2020WQ1 O C K 2020-11-24.27347 1.000E-05 05:31:20.500 1.500E-01 0.500 F -0.136 -0.002 +01° 06' 35.40" 1.000E-01 0.500 F 0.124 -0.019 21.0 R 0.70 0.21 o 691 0.04 Yes Yes
2020WR4 O C K 2020-11-24.37842 1.000E-05 03:54:47.120 1.500E-01 0.500 F -0.134 0.259 +07° 03' 51.30" 1.000E-01 0.500 F 0.272 0.284 20.7 R 0.70 0.59 o 691 0.81 Yes Yes
2020WR4 O C K 2020-11-24.39320 1.000E-05 03:54:54.120 1.500E-01 0.500 F -0.134 0.296 +07° 04' 48.30" 1.000E-01 0.500 F 0.272 0.210 20.4 R 0.70 0.30 o 691 0.79 Yes Yes
2020WR4 O C K 2020-11-24.40797 1.000E-05 03:55:01.180 1.500E-01 0.500 F -0.134 0.387 +07° 05' 45.20" 1.000E-01 0.500 F 0.272 0.069 21.0 R 0.70 0.90 o 691 0.89 Yes Yes
2020WB4 O C K 2020-11-24.41809 1.000E-05 04:05:21.520 1.500E-01 0.500 F -0.259 -0.352 +14° 53' 30.20" 1.000E-01 0.500 F 0.176 -0.002 20.8 R 0.70 0.24 o 691 0.80 Yes Yes
2020WB4 O C K 2020-11-24.42906 1.000E-05 04:05:21.350 1.500E-01 0.500 F -0.259 0.237 +14° 53' 44.20" 1.000E-01 0.500 F 0.176 0.087 21.4 R 0.70 0.84 o 691 0.57 Yes Yes
2020WB4 O C K 2020-11-24.44004 1.000E-05 04:05:21.160 1.500E-01 0.500 F -0.259 0.113 +14° 53' 57.30" 1.000E-01 0.500 F 0.176 -0.662 20.8 R 0.70 0.24 o 691 1.41 Yes Yes
2020VJ3 O C K 2020-11-24.45199 1.000E-05 03:34:36.440 1.500E-01 0.500 F -0.133 0.198 +28° 08' 31.80" 1.000E-01 0.500 F 0.239 0.072 o 691 0.44 Yes No
2020VJ3 O C K 2020-11-24.47483 1.000E-05 03:34:32.210 1.500E-01 0.500 F -0.133 0.366 +28° 08' 32.20" 1.000E-01 0.500 F 0.239 -0.273 o 691 0.95 Yes No
2017WA15 O C K 2020-11-25.06085 1.000E-05 20:16:04.460 1.500E-01 0.500 F -0.023 0.311 -07° 44' 36.30" 1.000E-01 0.500 F 0.309 0.371 o 691 0.99 Yes No
2017WA15 O C K 2020-11-25.08503 1.000E-05 20:16:11.690 1.500E-01 0.500 F -0.023 0.354 -07° 43' 48.40" 1.000E-01 0.500 F 0.309 -0.111 o 691 0.75 Yes No
2017WA15 O C K 2020-11-25.10643 1.000E-05 20:16:18.070 1.500E-01 0.500 F -0.023 0.055 -07° 43' 05.40" 1.000E-01 0.500 F 0.309 0.062 o 691 0.17 Yes No
2012HD20 O C K 2020-11-25.13081 1.000E-05 22:22:39.690 1.500E-01 0.500 F -0.182 -0.234 -24° 13' 31.60" 1.000E-01 0.500 F 0.607 -0.095 o 691 0.52 Yes No
1998VD32 O C K 2020-11-25.14837 1.000E-05 23:01:54.300 1.500E-01 0.500 F -0.098 0.525 +12° 09' 59.80" 1.000E-01 0.500 F 0.178 -0.167 20.4 R 0.70 0.78 o 691 1.15 Yes Yes
2012HD20 O C K 2020-11-25.15583 1.000E-05 22:22:38.340 1.500E-01 0.500 F -0.165 0.170 -24° 13' 06.10" 1.000E-01 0.500 F 0.533 0.598 21.7 R 0.70 0.35 o 691 1.27 Yes Yes
1998VD32 O C K 2020-11-25.17338 1.000E-05 23:01:41.390 1.500E-01 0.500 F -0.098 0.766 +12° 09' 04.90" 1.000E-01 0.500 F 0.178 0.427 19.5 R 0.70 -0.12 o 691 1.84 Yes Yes
2020WD1 O C K 2020-11-25.19448 1.000E-05 03:49:28.160 1.500E-01 0.500 F -0.210 -0.995 -05° 54' 58.60" 1.000E-01 0.500 F 0.285 0.437 20.9 R 0.70 0.26 o 691 2.18 Yes Yes
2020WD1 O C K 2020-11-25.20580 1.000E-05 03:49:27.180 1.500E-01 0.500 F -0.210 -0.803 -05° 55' 06.50" 1.000E-01 0.500 F 0.285 0.335 o 691 1.75 Yes No
2020WD1 O C K 2020-11-25.21712 1.000E-05 03:49:26.230 1.500E-01 0.500 F -0.210 -0.037 -05° 55' 14.50" 1.000E-01 0.500 F 0.285 0.107 o 691 0.23 Yes No
2020WZ3 O C K 2020-11-25.23145 1.000E-05 04:58:01.740 1.500E-01 0.500 F -0.158 -0.899 +12° 11' 51.50" 1.000E-01 0.500 F 0.142 -0.191 20.0 R 0.70 -0.50 o 691 1.87 Yes Yes
2020WY O C K 2020-11-25.24221 1.000E-05 04:57:24.680 1.500E-01 0.500 F -0.131 -0.542 +00° 23' 15.20" 1.000E-01 0.500 F 0.158 -0.415 20.4 R 0.70 -0.35 o 691 1.37 Yes Yes
2020WZ3 O C K 2020-11-25.25229 1.000E-05 04:57:54.400 1.500E-01 0.500 F -0.158 -0.595 +12° 09' 53.40" 1.000E-01 0.500 F 0.142 0.026 20.8 R 0.70 0.30 o 691 1.21 Yes Yes
2020WY O C K 2020-11-25.26305 1.000E-05 04:57:19.520 1.500E-01 0.500 F -0.131 -0.246 +00° 23' 41.40" 1.000E-01 0.500 F 0.158 0.478 20.4 R 0.70 -0.35 o 691 1.08 Yes Yes
2020WZ3 O C K 2020-11-25.27312 1.000E-05 04:57:47.010 1.500E-01 0.500 F -0.158 -0.152 +12° 07' 55.00" 1.000E-01 0.500 F 0.142 0.058 o 691 0.33 Yes No
2020WY O C K 2020-11-25.28388 1.000E-05 04:57:14.220 1.500E-01 0.500 F -0.131 -1.045 +00° 24' 06.30" 1.000E-01 0.500 F 0.158 0.076 20.9 R 0.70 0.15 o 691 2.11 Yes Yes
2020WZ4 O C K 2020-11-25.30432 1.000E-05 05:22:53.860 1.500E-01 0.500 F -0.222 0.083 -00° 21' 47.00" 1.000E-01 0.500 F 0.124 0.117 18.7 R 0.70 -0.34 o 691 0.29 Yes Yes
2020TT7 O C 2020-11-25.30807 1.000E-05 05:25:52.100 1.500E-01 0.500 F -0.147 -0.378 -13° 12' 57.80" 1.000E-01 0.500 F 0.021 0.119 20.5 V 0.70 -0.34 o 691 0.80 Yes Yes
2020TT7 O C 2020-11-25.32795 1.000E-05 05:25:53.410 1.500E-01 0.500 F -0.147 -0.114 -13° 13' 12.80" 1.000E-01 0.500 F 0.021 0.029 20.9 V 0.70 0.06 o 691 0.24 Yes Yes
2020WZ4 O C K 2020-11-25.33976 1.000E-05 05:22:30.240 1.500E-01 0.500 F -0.222 -0.237 -00° 21' 21.20" 1.000E-01 0.500 F 0.124 0.156 18.9 R 0.70 -0.14 o 691 0.58 Yes Yes
2020TT7 O C 2020-11-25.34783 1.000E-05 05:25:54.690 1.500E-01 0.500 F -0.147 -0.192 -13° 13' 27.40" 1.000E-01 0.500 F 0.021 0.208 21.0 V 0.70 0.16 o 691 0.57 Yes Yes
2020WJ4 O C K 2020-11-25.36010 1.000E-05 08:13:30.220 1.500E-01 0.500 F -0.043 -0.006 +12° 54' 42.70" 1.000E-01 0.500 F 0.144 -0.125 20.4 R 0.70 -0.35 o 691 0.25 Yes Yes
2006LD1 O C K 2020-11-25.36986 1.000E-05 07:31:01.100 1.500E-01 0.500 F -0.138 0.071 +25° 15' 45.20" 1.000E-01 0.500 F 0.304 0.145 20.0 R 0.70 0.27 o 691 0.33 Yes Yes
2020WJ4 O C K 2020-11-25.38695 1.000E-05 08:13:34.970 1.500E-01 0.500 F -0.043 -0.163 +12° 54' 54.80" 1.000E-01 0.500 F 0.144 0.154 20.9 R 0.70 0.15 o 691 0.45 Yes Yes
2006LD1 O C K 2020-11-25.39671 1.000E-05 07:30:52.500 1.500E-01 0.500 F -0.138 -0.284 +25° 16' 29.90" 1.000E-01 0.500 F 0.304 -0.160 19.6 R 0.70 -0.13 o 691 0.67 Yes Yes
2020WJ4 O C K 2020-11-25.41379 1.000E-05 08:13:39.720 1.500E-01 0.500 F -0.043 -0.023 +12° 55' 06.20" 1.000E-01 0.500 F 0.144 -0.178 o 691 0.36 Yes No

[1-200] [201-400] [401-600] [601-800] [801-1000] [1001-1200] [1201-1400] [1401-1600] [1601-1800] [1801-2000] [2001-2200] [2201-2400] [2401-2600] [2601-2800] [2801-3000] [3001-3200] [3201-3400] [3401-3600] [3601-3800] [3801-4000] [4001-4200] [4201-4400] [4401-4600] [4601-4800] [4801-5000] [5001-5200] [5201-5400] [5401-5600] [5601-5800] [5801-6000] [6001-6200] [6201-6400] [6401-6600] [6601-6800] [6801-7000] [7001-7200] [7201-7400] [7401-7600] [7601-7800] [7801-8000] [8001-8200] [8201-8400] [8401-8600] [8601-8800] [8801-9000] [9001-9200] [9201-9400] [9401-9600] [9601-9800] [9801-10000] [10001-10200] [10201-10400] [10401-10600] [10601-10800] [10801-11000] [11001-11200] [11201-11400] [11401-11600] [11601-11800] [11801-12000] [12001-12200] [12201-12400] [12401-12600] [12601-12800] [12801-13000] [13001-13200] [13201-13400] [13401-13600] [13601-13800] [13801-14000] [14001-14200] [14201-14400] [14401-14600] [14601-14800] [14801-15000] [15001-15200] [15201-15400] [15401-15600] [15601-15800] [15801-16000] [16001-16200] [16201-16400] [16401-16600] [16601-16800] [16801-17000] [17001-17200] [17201-17400] [17401-17600] [17601-17800] [17801-18000] [18001-18200] [18201-18400] [18401-18600] [18601-18800] [18801-19000] [19001-19200] [19201-19400] [19401-19600] [19601-19800] [19801-20000] [20001-20200] [20201-20400] [20401-20600] [20601-20800] [20801-21000] [21001-21200] [21201-21400] [21401-21600] [21601-21800] [21801-22000] [22001-22200] [22201-22400] [22401-22600] [22601-22800] [22801-23000] [23001-23200] [23201-23400] [23401-23600] [23601-23800] [23801-24000] [24001-24200] [24201-24400] [24401-24600] [24601-24800] [24801-25000] [25001-25200] [25201-25400] [25401-25600] [25601-25800] [25801-26000] [26001-26200] [26201-26400] [26401-26600] [26601-26800] [26801-27000] [27001-27200] [27201-27400] [27401-27600] [27601-27800] [27801-28000] [28001-28200] [28201-28400] [28401-28600] [28601-28800] [28801-29000] [29001-29200] [29201-29400] [29401-29600] [29601-29800] [29801-30000] [30001-30200] [30201-30400] [30401-30600] [30601-30800] [30801-31000] [31001-31200] [31201-31400] [31401-31600] [31601-31800] [31801-32000] [32001-32200] [32201-32400] [32401-32600] [32601-32800] [32801-33000] [33001-33200] [33201-33400] [33401-33600] [33601-33800] [33801-34000] [34001-34200] [34201-34400] [34401-34600] [34601-34800] [34801-35000] [35001-35200] [35201-35400] [35401-35600] [35601-35800] [35801-36000] [36001-36200] [36201-36400] [36401-36600] [36601-36800] [36801-37000] [37001-37200] [37201-37400] [37401-37600] [37601-37800] [37801-38000] [38001-38200] [38201-38400] [38401-38600] [38601-38800] [38801-39000] [39001-39200] [39201-39400] [39401-39600] [39601-39800] [39801-40000] [40001-40200] [40201-40400] [40401-40600] [40601-40800] [40801-41000] [41001-41200] [41201-41400] [41401-41600] [41601-41800] [41801-42000] [42001-42200] [42201-42400] [42401-42600] [42601-42800] [42801-43000] [43001-43200] [43201-43400] [43401-43600] [43601-43800] [43801-44000] [44001-44200] [44201-44400] [44401-44600] [44601-44800] [44801-45000] [45001-45200] [45201-45400] [45401-45600] [45601-45800] [45801-46000] [46001-46200] [46201-46400] [46401-46600] [46601-46800] [46801-47000] [47001-47200] [47201-47400] [47401-47600] [47601-47800] [47801-48000] [48001-48200] [48201-48400] [48401-48600] [48601-48800] [48801-49000] [49001-49200] [49201-49400] [49401-49600] [49601-49800] [49801-50000] [50001-50200] [50201-50400] [50401-50600] [50601-50741]